Terminal Aerodrome Forecast
Issued by NWS Upton, NY

Home | Current Version | Previous Version | Text Only | Print | Product List | Glossary On
Versions: 1 2 3 4 5 6 7 8 9 10 11 12 13 14 15 16 17 18 19 20 21 22 23 24 25 26 27
000
FTUS41 KOKX 101900 AAA
TAFBDR
TAF AMD
KBDR 101939Z 1020/1118 18010KT P6SM SCT060 SCT250
     FM110200 VRB04KT P6SM SCT050 BKN150
     FM110500 VRB04KT P6SM FEW008 SCT050 BKN150
     FM111500 06008KT P6SM FEW050 SCT120=

USA.gov is the U.S. government's official web portal to all federal, state and local government web resources and services.